createdAt,value
2019-05-19T00:03:39.585Z,99410.22
2019-05-19T00:08:44.415Z,99411.81
2019-05-19T00:13:49.320Z,99406.83
2019-05-19T00:18:54.042Z,99412.81
2019-05-19T00:23:59.869Z,99409.88
2019-05-19T00:29:05.178Z,99416.00
2019-05-19T00:34:09.836Z,99406.87
2019-05-19T00:39:14.483Z,99399.40
2019-05-19T00:44:19.415Z,99403.16
2019-05-19T00:49:24.188Z,99396.83
2019-05-19T00:54:28.835Z,99398.66
2019-05-19T00:59:34.281Z,99412.36
2019-05-19T01:04:39.022Z,99402.52
2019-05-19T01:09:43.795Z,99405.75
2019-05-19T01:14:48.580Z,99401.09
2019-05-19T01:19:56.122Z,99403.64
2019-05-19T01:24:59.911Z,99401.83
2019-05-19T01:30:04.820Z,99403.64
2019-05-19T01:35:10.353Z,99405.58
2019-05-19T01:40:15.276Z,99405.36
2019-05-19T01:45:20.145Z,99398.65
2019-05-19T01:50:24.945Z,99393.30
2019-05-19T01:55:29.742Z,99396.05
2019-05-19T02:00:34.643Z,99392.45
2019-05-19T02:05:39.322Z,99395.98
2019-05-19T02:10:44.008Z,99394.73
2019-05-19T02:15:48.756Z,99393.56
2019-05-19T02:20:53.585Z,99397.50
2019-05-19T02:25:58.281Z,99393.49
2019-05-19T02:31:03.071Z,99393.07
2019-05-19T02:36:07.842Z,99395.30
2019-05-19T02:41:15.865Z,99391.72
2019-05-19T02:46:21.116Z,99392.42
2019-05-19T02:51:27.493Z,99385.29
2019-05-19T02:56:32.990Z,99384.72
2019-05-19T03:01:56.515Z,99382.06
2019-05-19T03:07:01.367Z,99383.61
2019-05-19T03:12:06.158Z,99381.89
2019-05-19T03:17:11.020Z,99384.48
2019-05-19T03:22:15.861Z,99383.64
2019-05-19T03:27:20.608Z,99393.77
2019-05-19T03:32:34.808Z,99389.69
2019-05-19T03:37:39.660Z,99392.67
2019-05-19T03:42:44.319Z,99404.53
2019-05-19T03:47:49.011Z,99408.69
2019-05-19T03:52:53.701Z,99408.69
2019-05-19T03:57:58.412Z,99405.17
2019-05-19T04:03:03.149Z,99407.84
2019-05-19T04:08:07.844Z,99406.64
2019-05-19T04:13:12.494Z,99413.58
2019-05-19T04:18:17.335Z,99406.19
2019-05-19T04:23:22.899Z,99413.50
2019-05-19T04:28:27.879Z,99420.85
2019-05-19T04:33:32.636Z,99420.95
2019-05-19T04:38:37.280Z,99425.92
2019-05-19T04:43:41.988Z,99429.93
2019-05-19T04:48:46.806Z,99431.78
2019-05-19T04:53:51.555Z,99432.55
2019-05-19T04:58:56.336Z,99434.84
2019-05-19T05:04:01.055Z,99436.11
2019-05-19T05:09:06.886Z,99433.38
2019-05-19T05:14:11.751Z,99433.38
2019-05-19T05:19:16.573Z,99434.08
2019-05-19T05:24:22.330Z,99435.98
2019-05-19T05:29:27.009Z,99430.91
2019-05-19T05:34:31.755Z,99442.87
2019-05-19T05:39:36.530Z,99441.45
2019-05-19T05:44:41.245Z,99442.41
2019-05-19T05:49:45.970Z,99445.08
2019-05-19T05:54:50.800Z,99454.27
2019-05-19T05:59:55.438Z,99457.42
2019-05-19T06:05:00.239Z,99456.87
2019-05-19T06:10:05.405Z,99461.87
2019-05-19T06:15:10.480Z,99468.30
2019-05-19T06:20:15.431Z,99464.22
2019-05-19T06:25:20.159Z,99462.15
2019-05-19T06:30:24.933Z,99461.22
2019-05-19T06:35:29.632Z,99469.05
2019-05-19T06:40:34.397Z,99474.14
2019-05-19T06:45:39.195Z,99474.39
2019-05-19T06:50:43.842Z,99479.98
2019-05-19T06:55:48.960Z,99485.66
2019-05-19T07:00:53.695Z,99483.16
2019-05-19T07:05:58.542Z,99486.72
2019-05-19T07:11:03.245Z,99489.17
2019-05-19T07:16:08.070Z,99483.27
2019-05-19T07:21:12.783Z,99491.92
2019-05-19T07:26:17.566Z,99488.71
2019-05-19T07:31:22.845Z,99501.61
2019-05-19T07:36:27.663Z,99498.53
2019-05-19T07:41:32.282Z,99504.70
2019-05-19T07:46:37.082Z,99514.59
2019-05-19T07:51:42.659Z,99518.48
2019-05-19T07:56:47.355Z,99524.81
2019-05-19T08:01:52.080Z,99523.88
2019-05-19T08:06:56.882Z,99525.02
2019-05-19T08:12:01.655Z,99536.17
2019-05-19T08:17:06.622Z,99539.95
2019-05-19T08:22:11.891Z,99542.41
2019-05-19T08:27:16.723Z,99552.86
2019-05-19T08:32:21.521Z,99551.64
2019-05-19T08:37:26.381Z,99550.06
2019-05-19T08:42:31.151Z,99556.19
2019-05-19T08:47:36.214Z,99554.77
2019-05-19T08:52:41.305Z,99559.75
2019-05-19T08:57:46.442Z,99563.85
2019-05-19T09:02:51.262Z,99565.64
2019-05-19T09:07:56.099Z,99562.48
2019-05-19T09:13:00.964Z,99562.20
2019-05-19T09:18:06.021Z,99565.84
2019-05-19T09:23:10.862Z,99561.41
2019-05-19T09:28:15.721Z,99566.45
2019-05-19T09:33:20.603Z,99570.77
2019-05-19T09:38:25.561Z,99572.09
2019-05-19T09:43:30.514Z,99576.22
2019-05-19T09:48:35.288Z,99573.58
2019-05-19T09:53:40.141Z,99575.42
2019-05-19T09:58:44.938Z,99577.09
2019-05-19T10:03:49.801Z,99580.89
2019-05-19T10:09:00.101Z,99579.86
2019-05-19T10:14:05.304Z,99572.00
2019-05-19T10:19:10.174Z,99574.47
2019-05-19T10:24:15.118Z,99574.47
2019-05-19T10:29:19.961Z,99576.44
2019-05-19T10:34:24.783Z,99577.95
2019-05-19T10:39:29.783Z,99576.77
2019-05-19T10:44:34.626Z,99582.69
2019-05-19T10:49:42.780Z,99579.36
2019-05-19T10:54:46.111Z,99581.70
2019-05-19T10:59:51.079Z,99588.59
2019-05-19T11:04:55.903Z,99594.86
2019-05-19T11:10:01.394Z,99601.16
2019-05-19T11:15:07.541Z,99595.20
2019-05-19T11:20:12.740Z,99606.13
2019-05-19T11:25:32.691Z,99610.30
2019-05-19T11:30:24.348Z,99610.45
2019-05-19T11:35:29.302Z,99612.05
2019-05-19T11:40:34.120Z,99614.50
2019-05-19T11:45:38.923Z,99624.55
2019-05-19T11:50:43.701Z,99629.60
2019-05-19T11:55:48.865Z,99632.47
2019-05-19T12:00:53.901Z,99635.95
2019-05-19T12:05:58.850Z,99630.94
2019-05-19T12:11:03.823Z,99632.23
2019-05-19T12:16:08.765Z,99637.73
2019-05-19T12:21:13.524Z,99631.01
2019-05-19T12:26:23.225Z,99634.70
2019-05-19T12:31:25.076Z,99637.48
2019-05-19T12:36:30.002Z,99638.09
2019-05-19T12:41:34.803Z,99639.75
2019-05-19T12:46:39.647Z,99642.66
2019-05-19T12:51:44.719Z,99646.28
2019-05-19T12:56:49.685Z,99644.75
2019-05-19T13:01:54.562Z,99642.82
2019-05-19T13:06:59.386Z,99641.02
2019-05-19T13:12:04.461Z,99646.88
2019-05-19T13:17:09.557Z,99632.23
2019-05-19T13:22:14.489Z,99640.80
2019-05-19T13:27:19.326Z,99645.64
2019-05-19T13:32:24.042Z,99651.14
2019-05-19T13:37:28.844Z,99658.36
2019-05-19T13:42:33.541Z,99650.51
2019-05-19T13:47:38.562Z,99655.82
2019-05-19T13:52:43.502Z,99661.56
2019-05-19T13:57:48.338Z,99658.96
2019-05-19T14:02:53.182Z,99664.94
2019-05-19T14:07:58.394Z,99672.83
2019-05-19T14:13:03.061Z,99673.73
2019-05-19T14:18:07.841Z,99672.39
2019-05-19T14:23:12.622Z,99667.55
2019-05-19T14:28:17.394Z,99676.84
2019-05-19T14:33:22.342Z,99674.82
2019-05-19T14:38:27.121Z,99672.23
2019-05-19T14:43:32.041Z,99668.02
2019-05-19T14:48:36.931Z,99669.46
2019-05-19T14:53:41.971Z,99671.98
2019-05-19T14:58:46.741Z,99666.51
2019-05-19T15:03:51.523Z,99670.90
2019-05-19T15:08:56.522Z,99671.27
2019-05-19T15:14:01.579Z,99666.94
2019-05-19T15:19:06.464Z,99664.80
2019-05-19T15:24:11.282Z,99672.86
2019-05-19T15:29:16.204Z,99669.17
2019-05-19T15:34:21.152Z,99673.42
2019-05-19T15:39:26.094Z,99666.39
2019-05-19T15:44:31.011Z,99675.47
2019-05-19T15:49:35.873Z,99676.05
2019-05-19T15:54:40.751Z,99686.47
2019-05-19T15:59:45.747Z,99681.25
2019-05-19T16:04:50.606Z,99678.91
2019-05-19T16:09:55.422Z,99678.36
2019-05-19T16:15:00.567Z,99679.25
2019-05-19T16:20:05.959Z,99671.56
2019-05-19T16:25:11.041Z,99671.56
2019-05-19T16:30:16.089Z,99672.87
2019-05-19T16:35:21.071Z,99662.36
2019-05-19T16:40:25.977Z,99663.05
2019-05-19T16:45:30.811Z,99662.11
2019-05-19T16:50:35.747Z,99660.80
2019-05-19T16:55:40.592Z,99661.78
2019-05-19T17:00:45.704Z,99658.34
2019-05-19T17:05:50.652Z,99656.68
2019-05-19T17:10:55.532Z,99660.63
2019-05-19T17:16:00.406Z,99661.45
2019-05-19T17:21:05.324Z,99656.80
2019-05-19T17:26:10.263Z,99663.63
2019-05-19T17:31:15.043Z,99661.94
2019-05-19T17:36:19.851Z,99661.67
2019-05-19T17:41:24.662Z,99659.22
2019-05-19T17:46:29.713Z,99666.62
2019-05-19T17:51:34.573Z,99664.35
2019-05-19T17:56:40.271Z,99669.09
2019-05-19T18:01:45.053Z,99670.03
2019-05-19T18:06:49.902Z,99672.09
2019-05-19T18:11:54.721Z,99671.16
2019-05-19T18:16:59.560Z,99674.24
2019-05-19T18:22:04.521Z,99677.36
2019-05-19T18:27:09.250Z,99684.79
2019-05-19T18:32:14.366Z,99693.14
2019-05-19T18:37:19.535Z,99699.17
2019-05-19T18:42:25.178Z,99699.17
2019-05-19T18:47:30.078Z,99708.97
2019-05-19T18:52:35.058Z,99700.76
2019-05-19T18:57:39.801Z,99702.83
2019-05-19T19:02:44.541Z,99705.94
2019-05-19T19:07:52.398Z,99703.22
2019-05-19T19:12:57.335Z,99688.94
2019-05-19T19:18:02.359Z,99702.16
2019-05-19T19:23:07.201Z,99706.83
2019-05-19T19:28:12.084Z,99706.83
2019-05-19T19:33:16.768Z,99713.28
2019-05-19T19:38:21.722Z,99714.27
2019-05-19T19:43:26.740Z,99707.38
2019-05-19T19:48:31.569Z,99707.38
2019-05-19T19:53:36.398Z,99720.19
2019-05-19T19:58:41.247Z,99722.71
2019-05-19T20:03:46.211Z,99727.88
2019-05-19T20:08:51.064Z,99728.47
2019-05-19T20:13:55.924Z,99726.13
2019-05-19T20:19:00.801Z,99735.05
2019-05-19T20:24:05.767Z,99740.00
2019-05-19T20:29:10.761Z,99737.45
2019-05-19T20:34:15.611Z,99747.88
2019-05-19T20:39:20.342Z,99752.31
2019-05-19T20:44:25.379Z,99757.44
2019-05-19T20:49:30.340Z,99748.41
2019-05-19T20:54:35.121Z,99754.97
2019-05-19T20:59:39.902Z,99752.76
2019-05-19T21:04:44.661Z,99755.03
2019-05-19T21:09:49.801Z,99751.52
2019-05-19T21:14:54.603Z,99760.05
2019-05-19T21:19:59.602Z,99762.72
2019-05-19T21:25:04.710Z,99754.19
2019-05-19T21:30:10.092Z,99763.60
2019-05-19T21:35:14.978Z,99759.90
2019-05-19T21:40:20.026Z,99758.74
2019-05-19T21:45:25.002Z,99745.20
2019-05-19T21:50:29.886Z,99753.01
2019-05-19T21:55:34.951Z,99759.35
2019-05-19T22:00:39.669Z,99755.19
2019-05-19T22:05:52.796Z,99756.44
2019-05-19T22:10:51.104Z,99759.50
2019-05-19T22:16:11.687Z,99754.86
2019-05-19T22:21:02.590Z,99753.91
2019-05-19T22:26:07.515Z,99753.31
2019-05-19T22:31:12.401Z,99756.08
2019-05-19T22:36:17.141Z,99759.70
2019-05-19T22:41:21.861Z,99760.63
2019-05-19T22:46:26.582Z,99754.98
2019-05-19T22:51:31.401Z,99757.94
2019-05-19T22:56:36.271Z,99756.92
2019-05-19T23:01:51.291Z,99753.96
2019-05-19T23:06:47.965Z,99757.22
2019-05-19T23:11:52.845Z,99749.39
2019-05-19T23:16:57.721Z,99753.92
2019-05-19T23:22:02.847Z,99757.98
2019-05-19T23:27:07.670Z,99760.99
2019-05-19T23:32:12.520Z,99764.94
2019-05-19T23:37:17.541Z,99758.92
2019-05-19T23:42:22.321Z,99762.14
2019-05-19T23:47:27.111Z,99763.08
2019-05-19T23:52:31.882Z,99757.30
2019-05-19T23:57:36.778Z,99757.86
